Time;durP1;ratioP1;P1;durP2;ratioP2;P2;SDS_P1;SDS_P2;PMS_P1;PMS_P2;Temp;Humidity;BMP_temperature;BMP_pressure;BME280_temperature;BME280_humidity;BME280_pressure;Samples;Min_cycle;Max_cycle;Signal;HPM_P1;HPM_P2
2021/01/19 11:28:49;;;;;;;;;7.20;7.10;;;;;;;;3798045;22;1268270;-92
2021/01/19 11:29:42;;;;;;;;;9.60;6.40;;;;;;;;1893597;23;86001;-89
2021/01/19 11:30:39;;;;;;;;;10.20;8.20;;;;;;;;1884679;23;86085;-90
2021/01/19 11:31:37;;;;;;;;;10.80;6.40;;;;;;;;1891272;23;86251;-91
2021/01/19 11:32:41;;;;;;;;;;;;;;;;;;;;;
2021/01/19 11:33:48;;;;;;;;;8.60;8.00;;;;;;;;1900643;23;112967;-91
2021/01/19 11:34:38;;;;;;;;;7.00;7.00;;;;;;;;1903093;23;85120;-91
2021/01/19 11:35:26;;;;;;;;;9.40;7.80;;;;;;;;1893653;23;84388;-93
2021/01/19 11:36:25;;;;;;;;;6.80;5.20;;;;;;;;1897737;23;85883;-90
2021/01/19 11:37:17;;;;;;;;;11.00;8.40;;;;;;;;1893157;23;86240;-92
2021/01/19 11:38:25;;;;;;;;;9.60;7.40;;;;;;;;1891220;23;83712;-91
2021/01/19 11:39:27;;;;;;;;;4.75;4.75;;;;;;;;1893296;23;84896;-91
2021/01/19 11:40:12;;;;;;;;;6.75;6.25;;;;;;;;1893484;23;85887;-89
2021/01/19 11:41:00;;;;;;;;;7.75;7.75;;;;;;;;1889723;23;86311;-89
2021/01/19 11:42:06;;;;;;;;;8.20;6.80;;;;;;;;1887703;23;86188;-89
2021/01/19 11:42:51;;;;;;;;;9.80;6.60;;;;;;;;1890742;23;86122;-89
2021/01/19 11:43:37;;;;;;;;;5.67;5.67;;;;;;;;1890957;23;85097;-89
2021/01/19 11:44:28;;;;;;;;;10.75;8.00;;;;;;;;1886842;23;86755;-92
2021/01/19 11:45:13;;;;;;;;;9.00;7.75;;;;;;;;1888019;23;86737;-87
2021/01/19 11:47:29;;;;;;;;;7.00;5.50;;;;;;;;1868264;23;82858;-95
2021/01/19 11:48:17;;;;;;;;;3.25;3.25;;;;;;;;1871271;23;85349;-93
2021/01/19 11:49:23;;;;;;;;;7.50;5.00;;;;;;;;1865018;23;85346;-94
2021/01/19 11:50:12;;;;;;;;;8.50;6.50;;;;;;;;1871924;23;85163;-93
2021/01/19 11:51:16;;;;;;;;;8.75;7.00;;;;;;;;1881183;23;84356;-96
2021/01/19 13:10:03;;;;;;;;;2.00;2.00;;;;;;;;1908817;22;83235;-91
2021/01/19 13:11:14;;;;;;;;;3.75;3.25;;;;;;;;1900836;23;85323;-91
2021/01/19 13:12:19;;;;;;;;;8.00;4.50;;;;;;;;1890691;23;83837;-91
2021/01/19 13:13:13;;;;;;;;;6.00;4.00;;;;;;;;1893295;23;86226;-92
2021/01/19 13:14:00;;;;;;;;;3.00;3.00;;;;;;;;1892210;23;83594;-91
2021/01/19 13:15:04;;;;;;;;;;;;;;;;;;;;;
2021/01/19 13:15:58;;;;;;;;;5.50;5.50;;;;;;;;1898414;23;111392;-94
2021/01/19 13:16:48;;;;;;;;;5.50;3.00;;;;;;;;1900274;23;85386;-91
2021/01/19 13:17:37;;;;;;;;;5.50;4.00;;;;;;;;1891744;23;85081;-91
2021/01/19 13:18:25;;;;;;;;;6.50;4.00;;;;;;;;1887533;23;86274;-92
2021/01/19 13:19:33;;;;;;;;;4.50;4.50;;;;;;;;1895320;23;84980;-92
2021/01/19 13:20:29;;;;;;;;;;;;;;;;;;;;;
2021/01/19 13:21:23;;;;;;;;;5.00;3.25;;;;;;;;1900558;23;111706;-93
2021/01/19 13:22:11;;;;;;;;;3.00;3.00;;;;;;;;1905549;23;83902;-92
2021/01/19 13:22:59;;;;;;;;;3.50;3.50;;;;;;;;1892809;23;85698;-91
2021/01/19 13:23:47;;;;;;;;;5.50;4.50;;;;;;;;1887946;23;85496;-92
2021/01/19 13:24:32;;;;;;;;;7.00;3.00;;;;;;;;1888545;23;86873;-92
2021/01/19 13:25:18;;;;;;;;;5.00;3.00;;;;;;;;1887815;23;85628;-92
2021/01/19 13:26:05;;;;;;;;;4.67;4.00;;;;;;;;1887342;23;86206;-91
2021/01/19 13:26:55;;;;;;;;;3.50;3.00;;;;;;;;1896599;23;86958;-92
2021/01/19 13:28:58;;;;;;;;;5.75;3.50;;;;;;;;1902774;23;84526;-93
2021/01/19 13:30:51;;;;;;;;;5.00;3.75;;;;;;;;1873021;23;84504;-93
2021/01/19 13:31:37;;;;;;;;;3.50;3.50;;;;;;;;1873651;23;86976;-93
2021/01/19 13:32:48;;;;;;;;;2.67;2.67;;;;;;;;1864572;23;84441;-94
2021/01/19 13:33:41;;;;;;;;;3.75;3.75;;;;;;;;1836544;23;84313;-94
2021/01/19 13:34:36;;;;;;;;;6.00;4.75;;;;;;;;1860317;23;86939;-93
2021/01/19 13:35:21;;;;;;;;;4.00;3.00;;;;;;;;1864894;23;85043;-93
2021/01/19 13:36:12;;;;;;;;;5.00;3.50;;;;;;;;1868824;23;85346;-92
2021/01/19 13:37:10;;;;;;;;;;;;;;;;;;;;;
2021/01/19 13:47:08;;;;;;;;;6.50;6.50;;;;;;;;1900205;22;83461;-91
2021/01/19 13:48:02;;;;;;;;;3.75;3.00;;;;;;;;1874068;23;86834;-93
2021/01/19 13:48:59;;;;;;;;;5.00;4.50;;;;;;;;1885695;23;83956;-93
2021/01/19 13:51:13;;;;;;;;;4.00;4.00;;;;;;;;1829575;23;85134;-93
2021/01/19 13:52:10;;;;;;;;;4.25;2.75;;;;;;;;1828310;23;83646;-93
2021/01/19 13:53:04;;;;;;;;;3.50;3.50;;;;;;;;1829267;23;86277;-93
2021/01/19 14:01:05;;;;;;;;;5.00;4.50;;;;;;;;1795273;23;83108;-93
2021/01/19 14:02:16;;;;;;;;;6.33;6.00;;;;;;;;1829150;23;83486;-91
2021/01/19 14:03:28;;;;;;;;;4.00;4.00;;;;;;;;1812209;24;84137;-92
2021/01/19 14:04:32;;;;;;;;;5.00;5.00;;;;;;;;1785777;24;83500;-93
2021/01/19 14:05:43;;;;;;;;;6.50;4.75;;;;;;;;1820733;24;86379;-91
2021/01/19 14:06:34;;;;;;;;;5.00;5.00;;;;;;;;1808965;24;83203;-92
2021/01/19 14:07:28;;;;;;;;;6.25;6.25;;;;;;;;1820777;24;82928;-93
2021/01/19 14:08:40;;;;;;;;;5.50;4.75;;;;;;;;1811724;24;83487;-92
2021/01/19 14:09:51;;;;;;;;;3.00;3.00;;;;;;;;1802483;24;84236;-93
2021/01/19 14:10:45;;;;;;;;;4.00;4.00;;;;;;;;1807704;24;84269;-94
2021/01/19 14:11:56;;;;;;;;;4.50;4.00;;;;;;;;1820756;24;84519;-92
2021/01/19 14:13:11;;;;;;;;;6.50;5.75;;;;;;;;1820118;24;84624;-94
2021/01/19 14:14:08;;;;;;;;;8.75;6.50;;;;;;;;1818693;24;82891;-94
2021/01/19 14:14:54;;;;;;;;;6.00;5.00;;;;;;;;1820340;24;84369;-94
2021/01/19 14:16:02;;;;;;;;;7.33;6.00;;;;;;;;1816652;24;84631;-92
2021/01/19 14:17:09;;;;;;;;;8.00;5.00;;;;;;;;1803932;24;84908;-94
2021/01/19 14:17:57;;;;;;;;;7.25;4.75;;;;;;;;1792348;24;83554;-92
2021/01/19 14:18:45;;;;;;;;;6.00;6.00;;;;;;;;1807199;24;84283;-93
2021/01/19 14:19:56;;;;;;;;;8.00;6.25;;;;;;;;1810765;24;83761;-93
2021/01/19 14:20:50;;;;;;;;;9.00;8.00;;;;;;;;1807026;24;86138;-93
2021/01/19 14:21:54;;;;;;;;;5.50;5.50;;;;;;;;1820360;24;86373;-92
2021/01/19 14:22:48;;;;;;;;;9.00;7.75;;;;;;;;1811613;24;85299;-93
2021/01/19 14:23:41;;;;;;;;;6.00;6.00;;;;;;;;1811167;24;85086;-93
2021/01/19 14:26:21;;;;;;;;;7.00;7.00;;;;;;;;1772492;24;84877;-93
2021/01/19 14:27:07;;;;;;;;;6.00;5.25;;;;;;;;1762835;24;84063;-93
2021/01/19 14:29:14;;;;;;;;;6.00;6.00;;;;;;;;1783459;24;83903;-92
2021/01/19 14:29:59;;;;;;;;;5.25;5.25;;;;;;;;1803449;24;84951;-94
2021/01/19 14:30:57;;;;;;;;;8.67;8.67;;;;;;;;1803280;24;83499;-94
2021/01/19 14:31:49;;;;;;;;;8.25;8.25;;;;;;;;1797196;24;85864;-92
2021/01/19 14:32:37;;;;;;;;;6.25;3.00;;;;;;;;1801819;24;83168;-93
2021/01/19 14:33:42;;;;;;;;;8.75;7.75;;;;;;;;1795246;24;83608;-94
2021/01/19 14:34:30;;;;;;;;;9.75;6.75;;;;;;;;1792948;24;86202;-93
2021/01/19 14:35:21;;;;;;;;;8.75;6.00;;;;;;;;1801484;24;86461;-91
2021/01/19 14:36:29;;;;;;;;;7.50;6.50;;;;;;;;1795462;24;84897;-91
2021/01/19 14:37:18;;;;;;;;;4.75;4.25;;;;;;;;1778274;24;85941;-93
2021/01/19 14:38:16;;;;;;;;;7.00;6.00;;;;;;;;1770710;24;84789;-92
2021/01/19 14:39:27;;;;;;;;;8.75;6.75;;;;;;;;1762534;24;85319;-93
2021/01/19 14:40:21;;;;;;;;;6.25;5.50;;;;;;;;1759945;24;83561;-93
2021/01/19 14:41:31;;;;;;;;;6.50;6.50;;;;;;;;1779224;24;84836;-92
2021/01/19 14:42:19;;;;;;;;;5.25;5.25;;;;;;;;1770938;24;85433;-93
2021/01/19 14:43:11;;;;;;;;;7.25;6.00;;;;;;;;1770075;24;85408;-92
2021/01/19 14:44:12;;;;;;;;;5.00;5.00;;;;;;;;1766683;24;85467;-92
2021/01/19 14:45:06;;;;;;;;;6.00;5.50;;;;;;;;1763113;24;84888;-92
2021/01/19 14:46:10;;;;;;;;;6.50;4.75;;;;;;;;1777634;24;84013;-92
2021/01/19 14:47:19;;;;;;;;;8.75;5.00;;;;;;;;1788111;24;86470;-92
2021/01/19 14:48:34;;;;;;;;;6.00;6.00;;;;;;;;1798105;24;84608;-93
2021/01/19 14:49:28;;;;;;;;;7.75;6.25;;;;;;;;1804000;24;85754;-94
2021/01/19 14:50:39;;;;;;;;;5.00;5.00;;;;;;;;1797368;24;85985;-94
2021/01/19 14:51:50;;;;;;;;;6.75;6.00;;;;;;;;1777943;24;85239;-92
2021/01/19 14:52:55;;;;;;;;;6.25;6.25;;;;;;;;1763302;24;85433;-91
2021/01/19 14:53:56;;;;;;;;;6.50;6.50;;;;;;;;1778881;24;85715;-93
2021/01/19 14:54:55;;;;;;;;;6.00;6.00;;;;;;;;1778713;24;85854;-91
2021/01/19 14:55:43;;;;;;;;;7.00;7.00;;;;;;;;1770526;24;83353;-90
2021/01/19 14:57:25;;;;;;;;;;;;;;;;;;;;;
2021/01/19 14:58:23;;;;;;;;;5.00;5.00;;;;;;;;1745835;25;84653;-91
2021/01/19 14:59:17;;;;;;;;;7.00;7.00;;;;;;;;1746228;25;85737;-92
2021/01/19 15:00:31;;;;;;;;;9.25;6.00;;;;;;;;1746693;25;85508;-94
2021/01/19 15:01:48;;;;;;;;;8.50;7.25;;;;;;;;1753900;25;85401;-93
2021/01/19 15:03:44;;;;;;;;;8.50;6.50;;;;;;;;1737225;25;83254;-94
2021/01/19 15:04:34;;;;;;;;;9.00;6.50;;;;;;;;1755254;25;84452;-95
2021/01/19 15:05:53;;;;;;;;;;;;;;;;;;;;;
2021/01/19 15:07:13;;;;;;;;;10.00;5.50;;;;;;;;1755431;25;112994;-92
2021/01/19 15:08:22;;;;;;;;;7.25;6.50;;;;;;;;1772662;24;86845;-93
2021/01/19 15:10:38;;;;;;;;;5.25;5.25;;;;;;;;1761146;24;83322;-93
2021/01/19 15:11:35;;;;;;;;;8.25;6.75;;;;;;;;1769446;24;85761;-93
2021/01/19 15:14:23;;;;;;;;;8.50;7.50;;;;;;;;1765554;24;85424;-95
2021/01/19 15:15:38;;;;;;;;;7.00;6.00;;;;;;;;1767844;24;84159;-92
2021/01/19 15:17:40;;;;;;;;;7.00;5.75;;;;;;;;1756675;24;84413;-94
2021/01/19 15:18:35;;;;;;;;;9.00;8.33;;;;;;;;1773020;24;85524;-94
2021/01/19 15:19:20;;;;;;;;;8.00;7.25;;;;;;;;1774718;24;84009;-91
2021/01/19 15:20:05;;;;;;;;;8.00;8.00;;;;;;;;1774267;24;83873;-93
2021/01/19 15:20:51;;;;;;;;;11.00;9.67;;;;;;;;1776034;24;82772;-94
2021/01/19 15:22:53;;;;;;;;;9.50;7.75;;;;;;;;1779108;24;83108;-94
2021/01/19 15:23:53;;;;;;;;;7.25;7.25;;;;;;;;1779092;24;84336;-93
2021/01/19 15:25:01;;;;;;;;;10.75;10.50;;;;;;;;1770444;24;83265;-95
2021/01/19 15:26:07;;;;;;;;;6.00;6.00;;;;;;;;1770348;24;83625;-94
2021/01/19 15:26:56;;;;;;;;;12.75;11.25;;;;;;;;1770206;24;82935;-94
2021/01/19 15:27:41;;;;;;;;;10.50;9.00;;;;;;;;1771448;24;86073;-93
2021/01/19 15:28:29;;;;;;;;;9.00;7.00;;;;;;;;1775562;24;82938;-93
2021/01/19 15:29:24;;;;;;;;;7.75;7.75;;;;;;;;1781346;24;83843;-94
2021/01/19 15:30:15;;;;;;;;;9.75;9.50;;;;;;;;1786868;24;83055;-93
2021/01/19 15:31:00;;;;;;;;;8.00;8.00;;;;;;;;1786768;24;85916;-92
2021/01/19 15:31:46;;;;;;;;;9.00;9.00;;;;;;;;1783102;24;85732;-93
2021/01/19 15:32:31;;;;;;;;;11.00;8.33;;;;;;;;1782631;24;85229;-92
2021/01/19 15:33:19;;;;;;;;;11.00;9.67;;;;;;;;1778518;24;83648;-93
2021/01/19 15:34:14;;;;;;;;;;;;;;;;;;;;;
2021/01/19 15:35:02;;;;;;;;;9.00;8.00;;;;;;;;1781523;24;110774;-94
2021/01/19 15:39:55;;;;;;;;;10.25;8.00;;;;;;;;1813977;24;83202;-93
2021/01/19 15:40:43;;;;;;;;;10.00;10.00;;;;;;;;1812282;24;84528;-94
2021/01/19 15:41:28;;;;;;;;;10.25;9.25;;;;;;;;1812514;24;86403;-95
2021/01/19 15:42:16;;;;;;;;;15.00;11.00;;;;;;;;1816201;24;85208;-93
2021/01/19 15:43:01;;;;;;;;;11.00;9.50;;;;;;;;1809415;24;84829;-93
2021/01/19 15:43:49;;;;;;;;;9.00;9.00;;;;;;;;1812256;24;83702;-94
2021/01/19 15:44:35;;;;;;;;;9.00;9.00;;;;;;;;1813389;23;84715;-94
2021/01/19 15:46:55;;;;;;;;;9.25;8.75;;;;;;;;1830419;23;84975;-93
2021/01/19 15:47:45;;;;;;;;;14.50;9.00;;;;;;;;1874359;23;84767;-93
2021/01/19 15:48:50;;;;;;;;;11.00;9.50;;;;;;;;1882079;23;83716;-94
2021/01/19 15:49:53;;;;;;;;;8.75;8.75;;;;;;;;1881158;23;84806;-94
2021/01/19 15:50:44;;;;;;;;;8.75;8.75;;;;;;;;1873738;23;84035;-93
2021/01/19 15:51:39;;;;;;;;;12.00;10.00;;;;;;;;1880855;23;85088;-93
2021/01/19 15:52:24;;;;;;;;;8.50;8.50;;;;;;;;1872372;23;86468;-92
2021/01/19 15:53:09;;;;;;;;;12.00;8.67;;;;;;;;1869970;23;85354;-92
2021/01/19 15:53:57;;;;;;;;;13.33;10.33;;;;;;;;1866655;23;84698;-93
2021/01/19 15:54:52;;;;;;;;;;;;;;;;;;;;;
2021/01/19 15:55:50;;;;;;;;;11.25;11.25;;;;;;;;1877542;23;113094;-93
2021/01/19 15:56:38;;;;;;;;;14.00;12.00;;;;;;;;1880240;23;85374;-94
2021/01/19 15:57:24;;;;;;;;;8.50;7.50;;;;;;;;1872723;23;85804;-94
2021/01/19 15:58:09;;;;;;;;;6.00;6.00;;;;;;;;1867541;23;85216;-94
2021/01/19 15:59:03;;;;;;;;;13.67;11.33;;;;;;;;1867295;23;85113;-93
2021/01/19 15:59:57;;;;;;;;;9.00;6.50;;;;;;;;1868303;23;83392;-94
2021/01/19 16:01:02;;;;;;;;;11.75;10.00;;;;;;;;1870430;23;85303;-93
2021/01/19 16:02:01;;;;;;;;;;;;;;;;;;;;;
2021/01/19 16:02:49;;;;;;;;;8.50;7.50;;;;;;;;1881453;23;111871;-93
2021/01/19 16:03:39;;;;;;;;;8.75;8.50;;;;;;;;1879002;23;86458;-93
2021/01/19 16:04:33;;;;;;;;;12.00;8.00;;;;;;;;1873564;23;85204;-93
2021/01/19 16:05:26;;;;;;;;;11.25;10.00;;;;;;;;1879345;23;84497;-93
2021/01/19 16:06:28;;;;;;;;;10.00;10.00;;;;;;;;1885440;23;83937;-93
2021/01/19 16:07:35;;;;;;;;;10.00;9.00;;;;;;;;1884635;23;83083;-94
2021/01/19 16:08:21;;;;;;;;;9.75;8.25;;;;;;;;1876975;23;85218;-94
2021/01/19 16:10:58;;;;;;;;;9.00;9.00;;;;;;;;1873004;23;83780;-92
2021/01/19 16:12:07;;;;;;;;;7.50;7.50;;;;;;;;1865298;23;85050;-93
2021/01/19 16:12:57;;;;;;;;;8.75;8.75;;;;;;;;1864154;23;86809;-93
2021/01/19 16:13:58;;;;;;;;;9.00;9.00;;;;;;;;1855505;23;85715;-93
2021/01/19 16:14:57;;;;;;;;;12.75;12.25;;;;;;;;1860947;23;85052;-94
2021/01/19 16:15:51;;;;;;;;;10.00;7.33;;;;;;;;1872760;23;85363;-95
2021/01/19 16:16:38;;;;;;;;;10.75;9.00;;;;;;;;1872312;23;85437;-93
2021/01/19 16:17:24;;;;;;;;;8.50;6.75;;;;;;;;1864114;23;86753;-92
2021/01/19 16:18:09;;;;;;;;;11.00;11.00;;;;;;;;1860841;23;86636;-90
2021/01/19 16:19:09;;;;;;;;;6.67;6.00;;;;;;;;1850216;23;86585;-92
2021/01/19 16:20:07;;;;;;;;;;;;;;;;;;;;;
2021/01/19 16:21:12;;;;;;;;;50.60;38.00;;;;;;;;1862544;23;112114;-94
2021/01/19 16:22:00;;;;;;;;;70.60;54.20;;;;;;;;1864193;23;85243;-93
2021/01/19 16:22:46;;;;;;;;;37.80;30.80;;;;;;;;1864061;23;85116;-91
2021/01/19 16:23:31;;;;;;;;;20.00;18.25;;;;;;;;1867176;23;85345;-93
2021/01/19 16:24:16;;;;;;;;;15.25;13.25;;;;;;;;1861988;23;85342;-90
2021/01/19 16:25:02;;;;;;;;;13.50;13.50;;;;;;;;1857034;23;87304;-90
2021/01/19 16:25:47;;;;;;;;;20.50;17.25;;;;;;;;1854131;23;86478;-88
2021/01/19 16:26:34;;;;;;;;;12.00;12.00;;;;;;;;1848834;23;85868;-88
2021/01/19 16:27:19;;;;;;;;;14.00;13.80;;;;;;;;1848357;23;86883;-89
2021/01/19 16:28:05;;;;;;;;;15.00;13.00;;;;;;;;1848341;23;85397;-89
2021/01/19 16:28:51;;;;;;;;;21.50;20.50;;;;;;;;1848543;23;85830;-90
2021/01/19 16:29:36;;;;;;;;;20.80;18.80;;;;;;;;1848830;23;85904;-92
2021/01/19 16:30:22;;;;;;;;;22.25;20.25;;;;;;;;1849048;23;86571;-90
2021/01/19 16:31:07;;;;;;;;;21.00;19.25;;;;;;;;1850137;23;86702;-90
2021/01/19 16:31:52;;;;;;;;;17.50;16.25;;;;;;;;1850600;23;86967;-90
2021/01/19 16:32:37;;;;;;;;;19.25;18.00;;;;;;;;1851373;23;86670;-91
2021/01/19 16:33:23;;;;;;;;;16.75;16.50;;;;;;;;1851851;23;85579;-90
2021/01/19 16:34:08;;;;;;;;;11.50;10.25;;;;;;;;1851142;23;86210;-90
2021/01/19 16:34:54;;;;;;;;;12.75;12.00;;;;;;;;1851433;23;85120;-89
2021/01/19 16:35:39;;;;;;;;;15.25;14.00;;;;;;;;1851988;23;83358;-88
2021/01/19 16:36:25;;;;;;;;;15.00;12.25;;;;;;;;1849107;23;85789;-89
2021/01/19 16:37:11;;;;;;;;;13.50;12.00;;;;;;;;1851417;23;83673;-91
2021/01/19 16:37:56;;;;;;;;;15.50;15.50;;;;;;;;1851458;23;85819;-91
2021/01/19 16:38:42;;;;;;;;;14.50;14.25;;;;;;;;1850228;23;85227;-90
2021/01/19 16:39:27;;;;;;;;;15.00;15.00;;;;;;;;1848168;23;84748;-90
2021/01/19 16:40:13;;;;;;;;;20.75;19.00;;;;;;;;1848409;23;85284;-90
2021/01/19 16:40:59;;;;;;;;;14.75;14.00;;;;;;;;1848682;23;85046;-90
2021/01/19 16:41:45;;;;;;;;;11.50;11.50;;;;;;;;1848956;23;86207;-91
2021/01/19 16:42:30;;;;;;;;;15.50;14.75;;;;;;;;1848706;23;85339;-89
2021/01/19 16:43:16;;;;;;;;;20.25;17.00;;;;;;;;1857435;23;83363;-89
2021/01/19 16:44:01;;;;;;;;;16.75;15.50;;;;;;;;1857390;23;84694;-90
2021/01/19 16:44:46;;;;;;;;;17.00;16.00;;;;;;;;1863294;23;84816;-90
2021/01/19 16:45:32;;;;;;;;;16.00;14.50;;;;;;;;1857582;23;85195;-90
2021/01/19 16:46:17;;;;;;;;;16.50;14.25;;;;;;;;1854580;23;83578;-91
2021/01/19 16:47:12;;;;;;;;;15.75;15.75;;;;;;;;1848440;23;85102;-90
2021/01/19 16:47:57;;;;;;;;;12.80;12.80;;;;;;;;1849782;23;83429;-93
2021/01/19 16:48:45;;;;;;;;;13.50;13.50;;;;;;;;1872145;23;86453;-91
2021/01/19 16:49:30;;;;;;;;;13.60;13.60;;;;;;;;1875834;23;85063;-89
2021/01/19 16:50:17;;;;;;;;;14.00;13.25;;;;;;;;1875971;23;86047;-90
2021/01/19 16:51:03;;;;;;;;;16.75;15.25;;;;;;;;1882074;23;86014;-89
2021/01/19 16:51:48;;;;;;;;;16.33;15.67;;;;;;;;1875653;23;85034;-89
2021/01/19 16:52:35;;;;;;;;;21.75;19.75;;;;;;;;1875377;23;85630;-89
2021/01/19 16:53:21;;;;;;;;;24.40;24.40;;;;;;;;1876124;23;85859;-88
2021/01/19 16:54:06;;;;;;;;;22.20;20.60;;;;;;;;1876550;23;86554;-88
2021/01/19 16:54:52;;;;;;;;;18.75;18.75;;;;;;;;1885217;23;86382;-90
2021/01/19 16:55:37;;;;;;;;;17.25;17.00;;;;;;;;1881578;23;85766;-89
2021/01/19 16:56:23;;;;;;;;;13.50;13.50;;;;;;;;1881558;23;85661;-90
2021/01/19 16:57:11;;;;;;;;;16.50;15.50;;;;;;;;1878738;23;85713;-90
2021/01/19 16:57:56;;;;;;;;;15.80;13.00;;;;;;;;1876105;23;86423;-90
2021/01/19 16:58:42;;;;;;;;;14.75;13.00;;;;;;;;1885152;23;86841;-90
2021/01/19 16:59:27;;;;;;;;;14.25;11.25;;;;;;;;1881478;23;85807;-89
2021/01/19 17:00:12;;;;;;;;;15.25;14.00;;;;;;;;1875801;23;86213;-89
2021/01/19 17:00:58;;;;;;;;;11.67;10.33;;;;;;;;1875323;23;84733;-88
2021/01/19 17:01:43;;;;;;;;;10.00;10.00;;;;;;;;1876008;23;85148;-88
2021/01/19 17:02:28;;;;;;;;;15.25;14.00;;;;;;;;1875434;23;86805;-89
2021/01/19 17:03:14;;;;;;;;;11.25;10.50;;;;;;;;1875639;23;86415;-89
2021/01/19 17:03:59;;;;;;;;;11.00;9.50;;;;;;;;1876292;23;85960;-91
2021/01/19 17:04:45;;;;;;;;;15.00;13.75;;;;;;;;1875927;23;85238;-90
2021/01/19 17:05:30;;;;;;;;;17.00;14.00;;;;;;;;1876047;23;86083;-91
2021/01/19 17:06:16;;;;;;;;;15.00;13.75;;;;;;;;1875619;23;84572;-89
2021/01/19 17:07:01;;;;;;;;;14.75;13.75;;;;;;;;1875939;23;84555;-91
2021/01/19 17:07:49;;;;;;;;;15.00;15.00;;;;;;;;1875981;23;86225;-91
2021/01/19 17:08:37;;;;;;;;;13.60;11.20;;;;;;;;1875962;23;84354;-90
2021/01/19 17:09:23;;;;;;;;;14.60;14.20;;;;;;;;1877241;23;86047;-91
2021/01/19 17:10:08;;;;;;;;;13.75;13.75;;;;;;;;1876964;23;85199;-91
2021/01/19 17:10:54;;;;;;;;;11.75;11.75;;;;;;;;1876597;23;84800;-90
2021/01/19 17:11:43;;;;;;;;;17.50;15.75;;;;;;;;1876487;23;86085;-90
2021/01/19 17:12:29;;;;;;;;;20.00;16.00;;;;;;;;1876738;23;83652;-90
2021/01/19 17:13:14;;;;;;;;;14.75;14.25;;;;;;;;1876480;23;86009;-90
2021/01/19 17:13:59;;;;;;;;;16.25;14.75;;;;;;;;1875635;23;84906;-90
2021/01/19 17:14:44;;;;;;;;;18.50;17.00;;;;;;;;1875435;23;84783;-90
2021/01/19 17:15:30;;;;;;;;;12.25;11.00;;;;;;;;1875363;23;86393;-89
2021/01/19 17:16:16;;;;;;;;;20.25;14.75;;;;;;;;1875460;23;85820;-90
2021/01/19 17:17:01;;;;;;;;;15.80;15.20;;;;;;;;1875843;23;85812;-91
2021/01/19 17:17:48;;;;;;;;;17.00;15.25;;;;;;;;1877209;23;85947;-92
2021/01/19 17:18:34;;;;;;;;;20.40;14.40;;;;;;;;1881029;23;86106;-91
2021/01/19 17:19:19;;;;;;;;;18.00;15.25;;;;;;;;1876109;23;85895;-91
2021/01/19 17:20:05;;;;;;;;;18.60;15.40;;;;;;;;1885144;23;85096;-91
2021/01/19 17:20:50;;;;;;;;;17.25;14.50;;;;;;;;1885902;23;85749;-91
2021/01/19 17:21:36;;;;;;;;;16.00;15.25;;;;;;;;1890530;23;83730;-90
2021/01/19 17:22:21;;;;;;;;;12.25;12.25;;;;;;;;1881938;23;86803;-90
2021/01/19 17:23:07;;;;;;;;;20.00;17.50;;;;;;;;1876047;23;85097;-90
2021/01/19 17:23:52;;;;;;;;;15.50;15.50;;;;;;;;1876345;23;85361;-92
2021/01/19 17:24:38;;;;;;;;;20.25;19.00;;;;;;;;1876241;23;84266;-92
2021/01/19 17:25:23;;;;;;;;;17.00;16.00;;;;;;;;1886173;23;84893;-92
2021/01/19 17:26:09;;;;;;;;;22.75;18.00;;;;;;;;1883099;23;86575;-92
2021/01/19 17:26:56;;;;;;;;;22.00;18.50;;;;;;;;1876385;23;86587;-91
2021/01/19 17:27:42;;;;;;;;;20.40;15.80;;;;;;;;1876495;23;85516;-92
2021/01/19 17:28:27;;;;;;;;;22.80;19.00;;;;;;;;1882090;23;85817;-92
2021/01/19 17:29:13;;;;;;;;;28.25;23.25;;;;;;;;1876754;23;85244;-93
2021/01/19 17:30:01;;;;;;;;;20.00;19.50;;;;;;;;1882164;23;86153;-93
2021/01/19 17:30:47;;;;;;;;;21.80;19.40;;;;;;;;1876861;23;85781;-93
2021/01/19 17:31:39;;;;;;;;;18.60;16.60;;;;;;;;1877175;23;86660;-93
2021/01/19 17:32:24;;;;;;;;;19.00;18.60;;;;;;;;1882389;23;85645;-92
2021/01/19 17:33:17;;;;;;;;;26.00;25.75;;;;;;;;1886108;23;85320;-91
2021/01/19 17:34:02;;;;;;;;;22.40;21.00;;;;;;;;1881984;23;86890;-92
2021/01/19 17:34:47;;;;;;;;;19.00;17.00;;;;;;;;1881442;23;87744;-91
2021/01/19 17:35:36;;;;;;;;;23.00;20.00;;;;;;;;1875392;23;85814;-94
2021/01/19 17:36:21;;;;;;;;;23.80;22.00;;;;;;;;1876149;23;83995;-91
2021/01/19 17:37:06;;;;;;;;;26.50;23.00;;;;;;;;1875980;23;85324;-90
2021/01/19 17:37:52;;;;;;;;;25.25;22.50;;;;;;;;1884923;23;85284;-91
2021/01/19 17:38:37;;;;;;;;;25.75;24.50;;;;;;;;1881840;23;85525;-89
2021/01/19 17:39:22;;;;;;;;;25.25;22.25;;;;;;;;1866984;23;85080;-92
2021/01/19 17:40:08;;;;;;;;;26.50;23.25;;;;;;;;1866667;23;85745;-90
2021/01/19 17:40:53;;;;;;;;;27.00;25.00;;;;;;;;1863831;23;86327;-91
2021/01/19 17:41:39;;;;;;;;;24.25;23.25;;;;;;;;1866887;23;86295;-92
2021/01/19 17:42:24;;;;;;;;;24.75;22.50;;;;;;;;1869795;23;84892;-92
2021/01/19 17:43:10;;;;;;;;;19.75;19.25;;;;;;;;1882176;23;85119;-90
2021/01/19 17:43:55;;;;;;;;;20.25;18.50;;;;;;;;1875339;23;84780;-92
2021/01/19 17:44:41;;;;;;;;;20.25;18.00;;;;;;;;1875832;23;84755;-92
2021/01/19 17:45:28;;;;;;;;;21.40;19.00;;;;;;;;1876263;23;86230;-90
2021/01/19 17:46:13;;;;;;;;;28.00;23.40;;;;;;;;1876482;23;84496;-91
2021/01/19 17:46:59;;;;;;;;;21.25;20.25;;;;;;;;1875868;23;84418;-92
2021/01/19 17:47:46;;;;;;;;;19.50;17.25;;;;;;;;1875932;23;86154;-91
2021/01/19 17:48:31;;;;;;;;;18.60;15.40;;;;;;;;1877711;23;84978;-92
2021/01/19 17:49:17;;;;;;;;;19.00;19.00;;;;;;;;1877172;23;84946;-90
2021/01/19 17:50:05;;;;;;;;;23.75;22.50;;;;;;;;1876308;23;84814;-93
2021/01/19 17:50:50;;;;;;;;;20.60;19.80;;;;;;;;1875828;23;86388;-90
2021/01/19 17:51:36;;;;;;;;;24.25;23.75;;;;;;;;1876432;23;84330;-89
2021/01/19 17:52:21;;;;;;;;;22.75;21.75;;;;;;;;1875621;23;86292;-89
2021/01/19 17:53:06;;;;;;;;;44.75;35.50;;;;;;;;1876380;23;84540;-91
2021/01/19 17:53:55;;;;;;;;;39.50;33.00;;;;;;;;1884756;23;83894;-90
2021/01/19 17:54:40;;;;;;;;;37.60;31.00;;;;;;;;1885348;23;85469;-89
2021/01/19 17:55:25;;;;;;;;;30.00;27.50;;;;;;;;1881357;23;85877;-88
2021/01/19 17:56:12;;;;;;;;;28.00;23.00;;;;;;;;1884467;23;83720;-89
2021/01/19 17:57:00;;;;;;;;;26.00;24.00;;;;;;;;1881163;23;85829;-85
2021/01/19 17:57:46;;;;;;;;;27.20;26.40;;;;;;;;1881367;23;85054;-88
2021/01/19 17:58:32;;;;;;;;;34.40;26.40;;;;;;;;1875612;23;86054;-87
2021/01/19 17:59:17;;;;;;;;;24.00;23.00;;;;;;;;1875115;23;84474;-88
2021/01/19 18:00:03;;;;;;;;;34.50;29.00;;;;;;;;1875353;23;85032;-88
2021/01/19 18:00:48;;;;;;;;;31.75;29.75;;;;;;;;1875027;23;86011;-88
2021/01/19 18:01:34;;;;;;;;;41.00;36.00;;;;;;;;1881345;23;85885;-87
2021/01/19 18:02:19;;;;;;;;;36.80;33.80;;;;;;;;1878820;23;84952;-87
2021/01/19 18:03:05;;;;;;;;;32.00;28.50;;;;;;;;1875550;23;84879;-87
2021/01/19 18:03:54;;;;;;;;;27.75;25.75;;;;;;;;1883706;23;85188;-88
2021/01/19 18:04:40;;;;;;;;;27.40;25.80;;;;;;;;1881067;23;83619;-90
2021/01/19 18:05:26;;;;;;;;;26.20;23.00;;;;;;;;1876498;23;86579;-90
2021/01/19 18:06:11;;;;;;;;;27.00;27.00;;;;;;;;1884916;23;83809;-89
2021/01/19 18:06:58;;;;;;;;;29.50;26.50;;;;;;;;1884015;23;85451;-88
2021/01/19 18:07:48;;;;;;;;;33.20;31.20;;;;;;;;1890378;23;84957;-88
2021/01/19 18:08:33;;;;;;;;;27.80;23.80;;;;;;;;1881244;23;85304;-88
2021/01/19 18:09:19;;;;;;;;;24.00;23.00;;;;;;;;1876062;23;86096;-87
2021/01/19 18:10:05;;;;;;;;;27.80;25.00;;;;;;;;1875407;23;85745;-87
2021/01/19 18:10:50;;;;;;;;;28.25;25.25;;;;;;;;1875204;23;86295;-87
2021/01/19 18:11:36;;;;;;;;;27.50;26.00;;;;;;;;1884063;23;85246;-87
2021/01/19 18:12:25;;;;;;;;;20.00;20.00;;;;;;;;1881474;23;84844;-87
2021/01/19 18:13:10;;;;;;;;;28.40;24.20;;;;;;;;1884758;23;86762;-90
2021/01/19 18:13:56;;;;;;;;;19.50;19.50;;;;;;;;1881490;23;85826;-89
2021/01/19 18:14:41;;;;;;;;;22.25;20.75;;;;;;;;1875106;23;85105;-90
2021/01/19 18:15:26;;;;;;;;;20.25;19.50;;;;;;;;1875935;23;85126;-90
2021/01/19 18:16:32;;;;;;;;;25.00;21.50;;;;;;;;1875532;23;84982;-90
2021/01/19 18:17:17;;;;;;;;;29.00;26.20;;;;;;;;1878469;23;86573;-89
2021/01/19 18:18:02;;;;;;;;;22.25;20.75;;;;;;;;1879244;23;85945;-89
2021/01/19 18:18:48;;;;;;;;;26.75;21.00;;;;;;;;1875262;23;84812;-90
2021/01/19 18:19:33;;;;;;;;;25.00;20.25;;;;;;;;1875215;23;85334;-89
2021/01/19 18:20:18;;;;;;;;;22.75;17.75;;;;;;;;1875590;23;84085;-89
2021/01/19 18:21:07;;;;;;;;;14.75;14.75;;;;;;;;1875377;23;85132;-89
2021/01/19 18:21:53;;;;;;;;;17.40;17.40;;;;;;;;1875860;23;85711;-89
2021/01/19 18:22:38;;;;;;;;;22.50;19.75;;;;;;;;1875541;23;84568;-88
2021/01/19 18:23:23;;;;;;;;;20.00;17.00;;;;;;;;1874970;23;85166;-89
2021/01/19 18:24:09;;;;;;;;;18.00;13.25;;;;;;;;1875298;23;83594;-89
2021/01/19 18:24:54;;;;;;;;;19.75;18.75;;;;;;;;1878081;23;86025;-90
2021/01/19 18:25:42;;;;;;;;;20.75;17.00;;;;;;;;1884195;23;83897;-89
2021/01/19 18:26:40;;;;;;;;;18.00;16.60;;;;;;;;1880962;23;85803;-89
2021/01/19 18:27:25;;;;;;;;;15.20;15.20;;;;;;;;1882560;23;85899;-89
2021/01/19 18:28:10;;;;;;;;;16.00;16.00;;;;;;;;1877666;23;86623;-89
2021/01/19 18:28:56;;;;;;;;;19.50;17.25;;;;;;;;1875207;23;86398;-90
2021/01/19 18:29:41;;;;;;;;;19.25;18.00;;;;;;;;1875728;23;84107;-90
2021/01/19 18:30:26;;;;;;;;;16.50;14.75;;;;;;;;1884745;23;86838;-90